createdAt,value
2022-08-19T00:01:30.766Z,13.70
2022-08-19T00:03:59.544Z,13.25
2022-08-19T00:06:27.599Z,14.80
2022-08-19T00:08:54.273Z,14.57
2022-08-19T00:11:25.564Z,14.05
2022-08-19T00:13:53.363Z,13.75
2022-08-19T00:16:20.509Z,13.45
2022-08-19T00:18:53.044Z,14.45
2022-08-19T00:21:19.511Z,13.75
2022-08-19T00:23:45.990Z,13.18
2022-08-19T00:26:12.468Z,13.70
2022-08-19T00:28:39.027Z,12.75
2022-08-19T00:31:06.908Z,14.07
2022-08-19T00:33:33.735Z,14.02
2022-08-19T00:36:07.355Z,14.40
2022-08-19T00:38:37.964Z,13.80
2022-08-19T00:41:06.114Z,14.38
2022-08-19T00:43:33.252Z,13.55
2022-08-19T00:46:00.093Z,14.05
2022-08-19T00:48:26.630Z,13.43
2022-08-19T00:50:55.196Z,13.68
2022-08-19T00:53:24.325Z,13.98
2022-08-19T00:55:52.547Z,14.30
2022-08-19T00:58:21.523Z,14.52
2022-08-19T01:00:48.560Z,13.50
2022-08-19T01:03:19.181Z,13.65
2022-08-19T01:05:46.769Z,14.10
2022-08-19T01:08:15.188Z,14.40
2022-08-19T01:10:45.293Z,14.23
2022-08-19T01:13:12.204Z,14.20
2022-08-19T01:15:46.326Z,13.98
2022-08-19T01:18:15.116Z,13.90
2022-08-19T01:20:43.571Z,13.15
2022-08-19T01:23:10.360Z,13.13
2022-08-19T01:25:42.048Z,14.23
2022-08-19T01:28:11.083Z,14.50
2022-08-19T01:30:38.157Z,14.27
2022-08-19T01:33:06.847Z,14.63
2022-08-19T01:35:33.580Z,13.98
2022-08-19T01:38:03.347Z,14.38
2022-08-19T01:40:32.557Z,13.88
2022-08-19T01:42:59.366Z,14.82
2022-08-19T01:45:27.561Z,13.73
2022-08-19T01:48:01.724Z,14.33
2022-08-19T01:50:30.259Z,13.60
2022-08-19T01:53:02.279Z,13.15
2022-08-19T01:55:33.514Z,13.43
2022-08-19T01:58:02.166Z,13.80
2022-08-19T02:00:31.027Z,14.77
2022-08-19T02:02:57.689Z,14.75
2022-08-19T02:05:24.545Z,14.20
2022-08-19T02:07:51.229Z,13.80
2022-08-19T02:10:22.095Z,14.02
2022-08-19T02:12:50.276Z,14.60
2022-08-19T02:15:17.760Z,14.32
2022-08-19T02:17:44.365Z,13.90
2022-08-19T02:20:11.601Z,14.35
2022-08-19T02:22:38.074Z,13.68
2022-08-19T02:25:05.789Z,14.20
2022-08-19T02:27:33.102Z,14.25
2022-08-19T02:29:59.774Z,13.43
2022-08-19T02:32:26.329Z,13.82
2022-08-19T02:34:52.786Z,13.00
2022-08-19T02:37:37.851Z,13.98
2022-08-19T02:40:04.791Z,13.05
2022-08-19T02:42:39.072Z,13.63
2022-08-19T02:45:06.457Z,12.95
2022-08-19T02:47:33.424Z,14.20
2022-08-19T02:50:01.813Z,13.63
2022-08-19T02:52:28.314Z,13.25
2022-08-19T02:54:57.756Z,14.10
2022-08-19T02:57:24.901Z,12.88
2022-08-19T02:59:51.569Z,13.50
2022-08-19T03:02:18.058Z,13.50
2022-08-19T03:04:44.516Z,12.77
2022-08-19T03:07:14.579Z,12.70
2022-08-19T03:09:41.140Z,12.68
2022-08-19T03:12:07.724Z,13.63
2022-08-19T03:14:34.880Z,12.45
2022-08-19T03:17:01.400Z,12.57
2022-08-19T03:19:28.444Z,13.10
2022-08-19T03:21:56.298Z,13.30
2022-08-19T03:24:22.782Z,11.88
2022-08-19T03:26:52.270Z,13.15
2022-08-19T03:29:30.166Z,12.50
2022-08-19T03:32:01.884Z,13.65
2022-08-19T03:34:30.103Z,13.13
2022-08-19T03:36:58.659Z,12.93
2022-08-19T03:39:26.593Z,13.88
2022-08-19T03:42:38.841Z,12.90
2022-08-19T03:44:40.826Z,12.52
2022-08-19T03:47:07.724Z,12.50
2022-08-19T03:49:36.036Z,13.60
2022-08-19T03:54:32.405Z,12.82
2022-08-19T03:56:58.981Z,13.75
2022-08-19T03:59:29.742Z,13.52
2022-08-19T04:01:58.172Z,13.20
2022-08-19T04:04:25.443Z,12.73
2022-08-19T04:06:56.029Z,13.43
2022-08-19T04:09:22.558Z,13.32
2022-08-19T04:11:57.366Z,13.43
2022-08-19T04:14:27.222Z,13.40
2022-08-19T04:16:54.041Z,14.02
2022-08-19T04:19:21.380Z,13.05
2022-08-19T04:21:52.136Z,13.38
2022-08-19T04:24:19.309Z,14.75
2022-08-19T04:26:46.540Z,14.00
2022-08-19T04:29:16.562Z,13.95
2022-08-19T04:31:45.225Z,14.38
2022-08-19T04:34:14.017Z,14.10
2022-08-19T04:36:42.396Z,14.55
2022-08-19T04:39:14.695Z,14.48
2022-08-19T04:41:59.922Z,14.15
2022-08-19T04:44:26.801Z,14.18
2022-08-19T04:46:53.689Z,15.07
2022-08-19T04:49:23.003Z,14.02
2022-08-19T04:51:50.680Z,14.27
2022-08-19T04:54:25.880Z,15.57
2022-08-19T04:57:06.944Z,14.63
2022-08-19T04:59:34.450Z,14.88
2022-08-19T05:02:00.920Z,15.23
2022-08-19T05:04:27.363Z,14.10
2022-08-19T05:07:00.005Z,15.00
2022-08-19T05:09:27.959Z,14.35
2022-08-19T05:11:54.804Z,15.00
2022-08-19T05:14:21.946Z,13.55
2022-08-19T05:16:48.672Z,14.45
2022-08-19T05:19:33.807Z,14.77
2022-08-19T05:22:19.683Z,14.90
2022-08-19T05:25:09.361Z,14.45
2022-08-19T05:27:33.363Z,15.13
2022-08-19T05:30:00.087Z,14.65
2022-08-19T05:32:27.136Z,14.70
2022-08-19T05:34:53.648Z,15.85
2022-08-19T05:37:20.392Z,14.80
2022-08-19T05:39:51.269Z,14.73
2022-08-19T05:42:18.062Z,15.10
2022-08-19T05:44:45.341Z,14.88
2022-08-19T05:47:13.312Z,15.35
2022-08-19T05:49:39.861Z,15.93
2022-08-19T05:52:09.322Z,13.93
2022-08-19T05:54:40.952Z,14.30
2022-08-19T05:57:07.997Z,14.05
2022-08-19T05:59:36.385Z,14.13
2022-08-19T06:02:07.548Z,14.25
2022-08-19T06:04:34.656Z,14.48
2022-08-19T06:07:02.428Z,14.43
2022-08-19T06:09:39.545Z,14.70
2022-08-19T06:12:06.225Z,15.00
2022-08-19T06:14:35.449Z,13.73
2022-08-19T06:17:07.508Z,14.80
2022-08-19T06:19:34.544Z,14.43
2022-08-19T06:22:07.548Z,15.45
2022-08-19T06:24:34.073Z,14.70
2022-08-19T06:27:02.009Z,15.30
2022-08-19T06:29:30.673Z,16.25
2022-08-19T06:31:59.012Z,16.38
2022-08-19T06:34:26.713Z,15.68
2022-08-19T06:36:53.365Z,14.85
2022-08-19T06:39:25.856Z,14.65
2022-08-19T06:41:56.884Z,14.07
2022-08-19T06:44:27.687Z,13.63
2022-08-19T06:46:56.133Z,15.30
2022-08-19T06:49:23.755Z,15.82
2022-08-19T06:51:50.888Z,14.50
2022-08-19T06:54:20.127Z,14.45
2022-08-19T06:56:47.303Z,13.48
2022-08-19T06:59:17.353Z,13.25
2022-08-19T07:01:47.851Z,14.60
2022-08-19T07:04:22.837Z,13.50
2022-08-19T07:06:55.047Z,13.50
2022-08-19T07:09:22.322Z,13.93
2022-08-19T07:11:51.090Z,13.80
2022-08-19T07:14:20.001Z,13.27
2022-08-19T07:16:49.433Z,12.70
2022-08-19T07:21:47.058Z,12.55
2022-08-19T07:24:13.640Z,11.77
2022-08-19T07:26:42.897Z,13.35
2022-08-19T07:29:10.286Z,12.40
2022-08-19T07:31:37.801Z,11.55
2022-08-19T07:34:09.717Z,10.98
2022-08-19T07:36:39.168Z,11.35
2022-08-19T07:39:10.152Z,12.50
2022-08-19T07:41:37.921Z,12.18
2022-08-19T07:44:06.256Z,12.93
2022-08-19T07:46:34.152Z,12.85
2022-08-19T07:49:01.377Z,12.02
2022-08-19T07:51:36.363Z,10.43
2022-08-19T07:54:04.239Z,10.57
2022-08-19T07:56:30.717Z,10.00
2022-08-19T08:01:29.010Z,9.38
2022-08-19T08:04:15.753Z,8.90
2022-08-19T08:07:01.121Z,8.02
2022-08-19T08:09:31.364Z,7.35
2022-08-19T08:12:32.883Z,7.70
2022-08-19T08:14:56.600Z,6.10
2022-08-19T08:17:31.049Z,5.53
2022-08-19T08:20:12.871Z,5.88
2022-08-19T08:23:02.772Z,6.20
2022-08-19T08:25:32.350Z,6.85
2022-08-19T08:28:01.070Z,5.97
2022-08-19T08:30:31.282Z,5.32
2022-08-19T08:32:59.759Z,5.93
2022-08-19T08:35:26.276Z,5.80
2022-08-19T08:37:54.781Z,5.28
2022-08-19T08:40:28.729Z,5.32
2022-08-19T08:48:24.137Z,6.07
2022-08-19T08:50:53.493Z,5.28
2022-08-19T08:56:01.254Z,5.57
2022-08-19T08:58:43.098Z,6.20
2022-08-19T09:01:11.757Z,6.22
2022-08-19T09:03:40.974Z,5.93
2022-08-19T09:06:18.243Z,5.38
2022-08-19T09:09:04.786Z,5.57
2022-08-19T09:11:42.555Z,5.65
2022-08-19T09:14:49.168Z,4.60
2022-08-19T09:17:11.303Z,5.30
2022-08-19T09:19:50.888Z,4.55
2022-08-19T09:22:19.978Z,4.00
2022-08-19T09:24:55.773Z,4.18
2022-08-19T09:27:42.155Z,4.00
2022-08-19T09:30:14.692Z,3.72
2022-08-19T09:32:43.545Z,3.80
2022-08-19T09:35:11.267Z,3.67
2022-08-19T09:37:38.659Z,4.28
2022-08-19T09:40:08.000Z,4.10
2022-08-19T09:42:35.860Z,3.55
2022-08-19T09:45:05.323Z,3.90
2022-08-19T09:47:39.009Z,4.13
2022-08-19T09:50:09.688Z,4.95
2022-08-19T09:52:37.384Z,4.20
2022-08-19T09:55:09.531Z,4.40
2022-08-19T09:57:36.146Z,4.50
2022-08-19T10:00:06.143Z,4.00
2022-08-19T10:02:34.540Z,4.05
2022-08-19T10:05:23.203Z,4.28
2022-08-19T10:07:53.577Z,4.07
2022-08-19T10:10:20.778Z,4.10
2022-08-19T10:12:48.767Z,4.50
2022-08-19T10:15:16.709Z,4.33
2022-08-19T10:17:47.588Z,4.72
2022-08-19T10:20:14.805Z,4.00
2022-08-19T10:22:42.231Z,4.72
2022-08-19T10:25:09.000Z,4.28
2022-08-19T10:27:35.722Z,4.65
2022-08-19T10:30:02.264Z,4.68
2022-08-19T10:32:34.470Z,4.05
2022-08-19T10:35:01.696Z,4.47
2022-08-19T10:37:29.049Z,5.13
2022-08-19T10:39:58.055Z,4.88
2022-08-19T10:42:24.611Z,4.60
2022-08-19T10:44:51.968Z,4.30
2022-08-19T10:47:25.458Z,5.30
2022-08-19T10:50:12.491Z,5.30
2022-08-19T10:52:48.980Z,5.65
2022-08-19T10:55:39.869Z,5.32
2022-08-19T10:58:12.257Z,5.90
2022-08-19T11:00:38.741Z,5.72
2022-08-19T11:03:05.207Z,5.45
2022-08-19T11:05:31.695Z,5.68
2022-08-19T11:08:07.227Z,6.10
2022-08-19T11:10:50.544Z,5.93
2022-08-19T11:13:17.189Z,5.47
2022-08-19T11:15:43.995Z,5.20
2022-08-19T11:18:13.401Z,5.57
2022-08-19T11:20:40.377Z,5.38
2022-08-19T11:23:07.374Z,6.20
2022-08-19T11:25:34.225Z,6.32
2022-08-19T11:28:00.712Z,6.32
2022-08-19T11:30:28.769Z,6.43
2022-08-19T11:32:55.225Z,6.27
2022-08-19T11:35:24.057Z,6.82
2022-08-19T11:40:17.027Z,6.43
2022-08-19T11:42:56.413Z,6.80
2022-08-19T11:45:28.803Z,7.75
2022-08-19T11:47:55.833Z,6.72
2022-08-19T11:50:24.211Z,6.65
2022-08-19T11:52:50.695Z,7.00
2022-08-19T11:55:17.217Z,7.72
2022-08-19T11:57:44.512Z,7.05
2022-08-19T12:00:13.728Z,7.20
2022-08-19T12:02:40.853Z,6.80
2022-08-19T12:05:12.009Z,6.20
2022-08-19T12:07:39.219Z,6.80
2022-08-19T12:10:05.989Z,7.28
2022-08-19T12:12:32.712Z,7.00
2022-08-19T12:14:59.367Z,6.72
2022-08-19T12:17:28.652Z,6.97
2022-08-19T12:19:55.419Z,7.13
2022-08-19T12:22:22.230Z,7.13
2022-08-19T12:24:51.606Z,6.65
2022-08-19T12:27:20.326Z,6.80
2022-08-19T12:30:06.543Z,7.40
2022-08-19T12:32:33.432Z,6.78
2022-08-19T12:34:59.926Z,7.13
2022-08-19T12:37:26.373Z,7.20
2022-08-19T12:39:53.033Z,6.75
2022-08-19T12:42:19.636Z,6.47
2022-08-19T12:44:46.144Z,6.05
2022-08-19T12:47:14.764Z,5.93
2022-08-19T12:49:53.407Z,6.15
2022-08-19T12:52:23.170Z,6.10
2022-08-19T12:54:53.797Z,5.30
2022-08-19T12:57:22.157Z,4.93
2022-08-19T12:59:54.492Z,4.60
2022-08-19T13:02:21.029Z,4.20
2022-08-19T13:04:47.527Z,4.15
2022-08-19T13:07:13.967Z,4.30
2022-08-19T13:09:43.363Z,4.50
2022-08-19T13:12:13.747Z,4.28
2022-08-19T13:14:41.331Z,4.15
2022-08-19T13:17:09.320Z,4.30
2022-08-19T13:19:37.721Z,3.88
2022-08-19T13:22:04.206Z,3.60
2022-08-19T13:24:33.516Z,3.65
2022-08-19T13:27:01.484Z,3.22
2022-08-19T13:29:46.773Z,3.58
2022-08-19T13:32:32.076Z,3.50
2022-08-19T13:34:58.580Z,3.58
2022-08-19T13:37:43.291Z,3.25
2022-08-19T13:40:24.867Z,3.10
2022-08-19T13:42:53.297Z,2.67
2022-08-19T13:45:23.577Z,2.83
2022-08-19T13:47:54.715Z,3.00
2022-08-19T13:50:28.365Z,3.30
2022-08-19T13:52:56.979Z,3.00
2022-08-19T13:55:24.992Z,3.05
2022-08-19T13:58:02.702Z,2.90
2022-08-19T14:00:33.811Z,3.10
2022-08-19T14:03:00.530Z,2.72
2022-08-19T14:05:28.462Z,2.80
2022-08-19T14:07:55.671Z,2.77
2022-08-19T14:10:22.546Z,2.70
2022-08-19T14:12:49.028Z,2.80
2022-08-19T14:15:16.420Z,2.83
2022-08-19T14:17:45.248Z,2.45
2022-08-19T14:20:17.577Z,2.50
2022-08-19T14:22:45.813Z,2.60
2022-08-19T14:25:16.113Z,2.80
2022-08-19T14:27:46.085Z,2.75
2022-08-19T14:30:15.494Z,2.65
2022-08-19T14:32:44.252Z,2.75
2022-08-19T14:37:45.275Z,2.55
2022-08-19T14:40:14.861Z,3.42
2022-08-19T14:42:41.919Z,3.03
2022-08-19T14:45:09.409Z,3.08
2022-08-19T14:47:35.924Z,2.75
2022-08-19T14:50:08.816Z,2.58
2022-08-19T14:52:37.220Z,2.67
2022-08-19T14:55:07.537Z,2.47
2022-08-19T14:57:34.233Z,2.50
2022-08-19T15:00:00.791Z,2.95
2022-08-19T15:02:35.033Z,2.88
2022-08-19T15:05:02.572Z,2.90
2022-08-19T15:07:30.143Z,3.30
2022-08-19T15:09:57.197Z,3.17
2022-08-19T15:12:24.090Z,3.08
2022-08-19T15:14:51.470Z,2.90
2022-08-19T15:17:25.781Z,2.90
2022-08-19T15:20:10.107Z,2.78
2022-08-19T15:22:36.733Z,3.13
2022-08-19T15:25:05.120Z,2.97
2022-08-19T15:27:32.802Z,3.10
2022-08-19T15:30:01.420Z,3.10
2022-08-19T15:32:28.909Z,3.05
2022-08-19T15:34:55.485Z,3.00
2022-08-19T15:37:25.092Z,3.05
2022-08-19T15:39:51.702Z,2.75
2022-08-19T15:42:30.007Z,3.40
2022-08-19T15:45:00.537Z,3.08
2022-08-19T15:47:34.436Z,2.95
2022-08-19T15:50:10.469Z,3.50
2022-08-19T15:52:37.549Z,2.90
2022-08-19T15:55:16.099Z,3.22
2022-08-19T15:58:21.831Z,3.05
2022-08-19T16:01:20.446Z,2.90
2022-08-19T16:04:13.947Z,2.90
2022-08-19T16:06:50.412Z,2.95
2022-08-19T16:09:18.063Z,2.70
2022-08-19T16:11:46.040Z,3.00
2022-08-19T16:14:14.305Z,2.92
2022-08-19T16:16:40.890Z,3.10
2022-08-19T16:19:10.414Z,2.90
2022-08-19T16:21:41.838Z,3.20
2022-08-19T16:24:12.847Z,2.90
2022-08-19T16:26:40.880Z,3.10
2022-08-19T16:29:12.080Z,3.20
2022-08-19T16:31:40.559Z,3.38
2022-08-19T16:34:07.030Z,3.33
2022-08-19T16:36:33.602Z,3.05
2022-08-19T16:39:00.952Z,3.20
2022-08-19T16:41:27.934Z,3.25
2022-08-19T16:43:55.146Z,2.97
2022-08-19T16:46:23.175Z,3.40
2022-08-19T16:48:53.839Z,3.20
2022-08-19T16:51:21.401Z,3.33
2022-08-19T16:53:47.914Z,3.20
2022-08-19T16:56:14.987Z,3.30
2022-08-19T16:58:42.605Z,3.30
2022-08-19T17:01:10.508Z,2.90
2022-08-19T17:03:39.712Z,3.13
2022-08-19T17:06:18.457Z,3.13
2022-08-19T17:08:48.816Z,3.50
2022-08-19T17:11:18.639Z,3.33
2022-08-19T17:13:47.871Z,3.70
2022-08-19T17:16:15.974Z,3.28
2022-08-19T17:18:42.428Z,3.67
2022-08-19T17:21:08.881Z,3.50
2022-08-19T17:23:43.031Z,3.63
2022-08-19T17:26:18.009Z,3.47
2022-08-19T17:28:50.652Z,4.10
2022-08-19T17:31:18.968Z,3.97
2022-08-19T17:33:48.232Z,3.80
2022-08-19T17:36:23.427Z,4.20
2022-08-19T17:38:50.799Z,4.03
2022-08-19T17:41:17.388Z,4.53
2022-08-19T17:43:44.472Z,4.15
2022-08-19T17:46:18.148Z,4.30
2022-08-19T17:48:52.271Z,4.20
2022-08-19T17:51:26.601Z,3.80
2022-08-19T17:53:54.123Z,4.05
2022-08-19T17:56:21.548Z,4.35
2022-08-19T17:58:59.816Z,4.18
2022-08-19T18:03:58.569Z,4.30
2022-08-19T18:06:25.012Z,4.30
2022-08-19T18:08:51.712Z,4.00
2022-08-19T18:11:18.159Z,4.40
2022-08-19T18:13:44.592Z,4.00
2022-08-19T18:16:13.242Z,4.18
2022-08-19T18:18:41.431Z,4.32
2022-08-19T18:21:08.978Z,4.55
2022-08-19T18:23:44.429Z,4.55
2022-08-19T18:26:12.719Z,4.20
2022-08-19T18:28:39.766Z,4.35
2022-08-19T18:31:16.924Z,4.38
2022-08-19T18:33:44.870Z,4.13
2022-08-19T18:36:12.011Z,3.73
2022-08-19T18:38:57.296Z,4.50
2022-08-19T18:41:42.978Z,4.18
2022-08-19T18:44:28.474Z,3.38
2022-08-19T18:47:13.835Z,3.33
2022-08-19T18:49:40.486Z,3.58
2022-08-19T18:52:07.468Z,3.70
2022-08-19T18:54:34.333Z,3.42
2022-08-19T18:57:00.828Z,3.53
2022-08-19T18:59:29.955Z,3.33
2022-08-19T19:01:57.657Z,3.28
2022-08-19T19:04:27.315Z,3.40
2022-08-19T19:06:53.861Z,4.00
2022-08-19T19:09:22.565Z,3.50
2022-08-19T19:11:52.061Z,3.70
2022-08-19T19:14:47.574Z,3.60
2022-08-19T19:17:12.623Z,3.42
2022-08-19T19:19:42.540Z,3.42
2022-08-19T19:22:12.911Z,3.45
2022-08-19T19:24:40.622Z,3.38
2022-08-19T19:27:10.086Z,3.10
2022-08-19T19:29:37.205Z,3.38
2022-08-19T19:32:05.317Z,3.22
2022-08-19T19:34:31.891Z,3.30
2022-08-19T19:36:58.611Z,3.10
2022-08-19T19:39:45.247Z,3.17
2022-08-19T19:42:19.927Z,3.33
2022-08-19T19:44:48.635Z,3.55
2022-08-19T19:47:15.566Z,3.00
2022-08-19T19:50:03.878Z,3.03
2022-08-19T19:52:28.497Z,3.50
2022-08-19T19:54:56.650Z,3.15
2022-08-19T19:57:26.646Z,3.20
2022-08-19T19:59:54.271Z,3.45
2022-08-19T20:02:21.792Z,3.50
2022-08-19T20:04:48.796Z,3.47
2022-08-19T20:07:15.304Z,3.28
2022-08-19T20:09:58.909Z,3.40
2022-08-19T20:12:26.047Z,3.60
2022-08-19T20:14:52.561Z,3.88
2022-08-19T20:17:20.398Z,3.80
2022-08-19T20:19:47.707Z,3.30
2022-08-19T20:22:14.368Z,3.90
2022-08-19T20:24:44.727Z,3.45
2022-08-19T20:27:11.421Z,3.72
2022-08-19T20:29:41.609Z,4.10
2022-08-19T20:32:12.308Z,3.90
2022-08-19T20:34:40.145Z,4.10
2022-08-19T20:37:09.042Z,3.80
2022-08-19T20:39:35.629Z,4.07
2022-08-19T20:42:02.201Z,3.95
2022-08-19T20:44:28.677Z,4.32
2022-08-19T20:46:57.649Z,4.03
2022-08-19T20:49:27.766Z,4.30
2022-08-19T20:51:56.396Z,4.32
2022-08-19T20:54:24.026Z,4.45
2022-08-19T20:56:51.623Z,4.05
2022-08-19T20:59:19.981Z,4.32
2022-08-19T21:01:47.446Z,4.57
2022-08-19T21:04:14.000Z,4.28
2022-08-19T21:06:42.235Z,4.30
2022-08-19T21:09:11.879Z,4.63
2022-08-19T21:11:38.974Z,4.70
2022-08-19T21:14:05.803Z,4.80
2022-08-19T21:16:33.724Z,5.30
2022-08-19T21:19:01.563Z,4.75
2022-08-19T21:21:28.427Z,4.88
2022-08-19T21:23:54.900Z,5.18
2022-08-19T21:26:29.296Z,5.10
2022-08-19T21:28:55.761Z,5.07
2022-08-19T21:31:22.632Z,5.32
2022-08-19T21:33:49.072Z,5.38
2022-08-19T21:36:15.589Z,4.82
2022-08-19T21:38:42.035Z,5.43
2022-08-19T21:41:08.491Z,5.03
2022-08-19T21:43:36.785Z,5.63
2022-08-19T21:46:03.678Z,5.13
2022-08-19T21:48:30.216Z,5.47
2022-08-19T21:50:59.929Z,5.35
2022-08-19T21:53:26.900Z,5.18
2022-08-19T21:56:00.889Z,5.30
2022-08-19T21:58:28.221Z,5.30
2022-08-19T22:01:05.501Z,5.70
2022-08-19T22:03:32.450Z,4.85
2022-08-19T22:05:58.907Z,5.35
2022-08-19T22:08:27.159Z,5.28
2022-08-19T22:10:53.665Z,5.57
2022-08-19T22:13:20.462Z,5.10
2022-08-19T22:15:48.387Z,4.90
2022-08-19T22:18:15.605Z,5.13
2022-08-19T22:20:43.584Z,5.13
2022-08-19T22:23:10.065Z,5.30
2022-08-19T22:25:40.317Z,4.97
2022-08-19T22:28:11.040Z,5.50
2022-08-19T22:30:41.635Z,5.28
2022-08-19T22:33:13.376Z,4.93
2022-08-19T22:35:41.349Z,5.55
2022-08-19T22:38:08.669Z,5.35
2022-08-19T22:40:39.439Z,5.00
2022-08-19T22:43:11.943Z,5.10
2022-08-19T22:45:38.817Z,5.10
2022-08-19T22:48:07.852Z,5.40
2022-08-19T22:53:02.669Z,5.00
2022-08-19T22:55:31.040Z,4.88
2022-08-19T22:57:58.841Z,4.60
2022-08-19T23:00:27.374Z,5.03
2022-08-19T23:02:55.514Z,4.47
2022-08-19T23:05:24.475Z,5.35
2022-08-19T23:07:52.682Z,4.68
2022-08-19T23:10:26.855Z,4.75
2022-08-19T23:12:57.613Z,4.88
2022-08-19T23:15:29.129Z,4.72
2022-08-19T23:17:58.536Z,4.82
2022-08-19T23:20:27.318Z,4.78
2022-08-19T23:22:54.591Z,4.82
2022-08-19T23:25:24.735Z,5.00
2022-08-19T23:28:09.796Z,4.85
2022-08-19T23:30:40.200Z,4.78
2022-08-19T23:33:21.458Z,4.68
2022-08-19T23:35:49.057Z,4.72
2022-08-19T23:38:15.580Z,4.40
2022-08-19T23:40:42.192Z,4.30
2022-08-19T23:43:09.786Z,4.72
2022-08-19T23:45:40.749Z,4.43
2022-08-19T23:48:17.994Z,4.32
2022-08-19T23:50:45.149Z,4.75
2022-08-19T23:53:13.369Z,3.83
2022-08-19T23:55:42.528Z,3.83
2022-08-19T23:58:09.047Z,3.67
